Currently 71°F in Simi Valley, California, USA
71°F
71°F / 71°F
calm
0.00"
Sunday, September 15, 2019 1:11 AM PDT

Simi Valley, California Weather Summary
Last 36 Hours

Temperature Winds Hourly Humidity Dewpoint
Time Report Norm Report Norm Max Gusts Precip. Rpt. Norm Rpt. Norm Pressure
1,3Sun 01:11 AM  70.6°F  65°F  calm  2 mph  6 mph  0.00"  36%  67%  41°F  53°F  N/A
Sun 01:00 AM  70.6°F  65°F  4 mph SW  1 mph  7 mph  0.00"  36%  67%  41°F  53°F  N/A
2Sun 12:22 AM  71.2°F  65°F  2 mph SW  2 mph  5 mph  ----  36%  66%  42°F  53°F  N/A
Sun 12:00 AM  70.8°F  66°F  1 mph NW  2 mph  6 mph  0.00"  37%  66%  42°F  53°F  N/A
Sat 11:00 PM  71.7°F  67°F  calm  2 mph  6 mph  0.00"  38%  65%  44°F  54°F  N/A
Sat 10:00 PM  74.0°F  69°F  4 mph W  1 mph  5 mph  0.00"  38%  63%  46°F  55°F  N/A
Sat 09:00 PM  76.4°F  71°F  3 mph NW  1 mph  4 mph  0.00"  38%  62%  48°F  57°F  N/A
Sat 08:00 PM  81.2°F  73°F  calm  2 mph  4 mph  0.00"  33%  60%  49°F  58°F  N/A
Sat 07:00 PM  87.1°F  76°F  calm  3 mph  12 mph  0.00"  29%  55%  50°F  58°F  N/A
Sat 06:00 PM  90.9°F  79°F  7 mph W  5 mph  12 mph  0.00"  24%  49%  48°F  58°F  N/A
Sat 05:00 PM  93.3°F  81°F  7 mph W  7 mph  17 mph  0.00"  19%  45%  44°F  58°F  N/A
Sat 04:00 PM  94.7°F  83°F  9 mph W  7 mph  16 mph  0.00"  17%  43%  42°F  58°F  N/A
Sat 03:00 PM  95.9°F  84°F  9 mph W  7 mph  17 mph  0.00"  15%  42%  39°F  58°F  N/A
Sat 02:00 PM  95.1°F  85°F  7 mph W  7 mph  16 mph  0.00"  21%  41%  48°F  58°F  N/A
Sat 01:00 PM  97.2°F  84°F  6 mph W  6 mph  11 mph  0.00"  14%  41%  39°F  58°F  N/A
Sat 12:00 PM  94.3°F  83°F  calm  5 mph  7 mph  0.00"  15%  44%  38°F  58°F  N/A
Sat 11:00 AM  89.8°F  80°F  3 mph W  4 mph  4 mph  0.00"  18%  49%  39°F  58°F  N/A
Sat 10:00 AM  81.4°F  75°F  calm  3 mph  3 mph  0.00"  34%  58%  49°F  58°F  N/A
Sat 09:00 AM  71.0°F  69°F  calm  1 mph  none  0.00"  48%  67%  50°F  57°F  N/A
Sat 08:00 AM  65.3°F  64°F  calm  1 mph  4 mph  0.00"  50%  73%  46°F  54°F  N/A
Sat 07:00 AM  62.5°F  61°F  1 mph SE  1 mph  3 mph  0.00"  52%  73%  44°F  53°F  N/A
Sat 06:00 AM  63.9°F  62°F  calm  2 mph  4 mph  0.00"  47%  72%  43°F  52°F  N/A
Sat 05:00 AM  64.2°F  62°F  calm  2 mph  none  0.00"  48%  71%  43°F  52°F  N/A
Sat 04:00 AM  65.1°F  63°F  calm  2 mph  3 mph  0.00"  47%  70%  44°F  52°F  N/A
Sat 03:00 AM  65.5°F  63°F  calm  2 mph  3 mph  0.00"  50%  69%  46°F  53°F  N/A
Sat 02:00 AM  65.9°F  64°F  calm  2 mph  none  0.00"  53%  67%  48°F  53°F  N/A
Sat 01:00 AM  67.5°F  65°F  calm  1 mph  3 mph  0.00"  55%  67%  50°F  53°F  N/A
Sat 12:00 AM  68.9°F  66°F  1 mph NW  2 mph  3 mph  0.00"  49%  66%  48°F  54°F  N/A
Fri 11:00 PM  70.3°F  67°F  1 mph SW  2 mph  6 mph  0.00"  45%  65%  47°F  55°F  N/A
Fri 10:00 PM  72.8°F  69°F  1 mph SW  1 mph  6 mph  0.00"  45%  63%  49°F  55°F  N/A
Fri 09:00 PM  75.8°F  71°F  2 mph SE  1 mph  5 mph  0.00"  43%  62%  51°F  57°F  N/A
Fri 08:00 PM  80.0°F  73°F  3 mph NW  2 mph  5 mph  0.00"  40%  60%  53°F  58°F  N/A
Fri 07:00 PM  85.1°F  76°F  2 mph W  4 mph  10 mph  0.00"  35%  54%  54°F  58°F  N/A
Fri 06:00 PM  89.4°F  80°F  5 mph SW  5 mph  14 mph  0.00"  26%  49%  49°F  58°F  N/A
Fri 05:00 PM  91.2°F  82°F  9 mph W  7 mph  15 mph  0.00"  23%  45%  47°F  58°F  N/A
Fri 04:00 PM  93.1°F  83°F  6 mph SW  7 mph  16 mph  0.00"  21%  43%  47°F  58°F  N/A
Fri 03:00 PM  93.4°F  84°F  9 mph SW  7 mph  17 mph  0.00"  21%  42%  47°F  58°F  N/A
Fri 02:00 PM  94.1°F  85°F  6 mph W  7 mph  19 mph  0.00"  20%  41%  45°F  58°F  N/A

  1. Current weather data. No green row appears if the current weather data is also the high or low for the current day.
  2. High temperature for the current day.
  3. Low temperature for the current day.

The Simi Valley, California weather pages are a service of WeatherCurrents.
Copyright ©2019  WeatherCurrents. All rights reserved. - Submit questions and comments - Privacy Policy

This page automatically refreshes every 10 minutes.